Time;durP1;ratioP1;P1;durP2;ratioP2;P2;SDS_P1;SDS_P2;PMS_P1;PMS_P2;Temp;Humidity;BMP_temperature;BMP_pressure;BME280_temperature;BME280_humidity;BME280_pressure;Samples;Min_cycle;Max_cycle;Signal;HPM_P1;HPM_P2
2022/07/09 00:00:03;;;;;;;0.32;0.32;;;;;;;18.97;83.42;101863.31;5002801;28;20543;-56
2022/07/09 00:02:35;;;;;;;0.00;0.00;;;;;;;19.00;83.56;101870.75;4996145;28;20042;-60
2022/07/09 00:05:01;;;;;;;0.57;0.57;;;;;;;18.93;83.76;101865.22;4997763;28;20079;-61
2022/07/09 00:07:26;;;;;;;0.65;0.30;;;;;;;18.96;84.10;101872.69;5005172;28;20021;-62
2022/07/09 00:09:52;;;;;;;0.13;0.13;;;;;;;18.95;83.93;101871.09;5007296;28;20026;-60
2022/07/09 00:12:18;;;;;;;0.52;0.30;;;;;;;19.00;83.73;101868.03;5003648;28;20042;-60
2022/07/09 00:14:44;;;;;;;0.30;0.30;;;;;;;18.98;84.10;101859.44;5006273;28;20084;-61
2022/07/09 00:17:09;;;;;;;0.47;0.30;;;;;;;18.96;84.67;101855.50;5005922;28;20025;-60
2022/07/09 00:19:35;;;;;;;0.10;0.10;;;;;;;18.95;84.43;101853.94;5002927;28;20037;-60
2022/07/09 00:22:00;;;;;;;0.22;0.20;;;;;;;18.87;84.68;101861.31;5005496;28;20025;-60
2022/07/09 00:24:26;;;;;;;0.50;0.35;;;;;;;18.84;84.68;101857.41;5003149;28;20041;-59
2022/07/09 00:26:52;;;;;;;0.40;0.30;;;;;;;18.81;85.18;101844.50;5003539;28;20104;-58
2022/07/09 00:29:17;;;;;;;0.00;0.00;;;;;;;18.73;85.49;101851.09;5017236;28;20125;-60
2022/07/09 00:31:45;;;;;;;0.20;0.10;;;;;;;18.62;86.16;101850.22;5002220;28;20064;-60
2022/07/09 00:34:12;;;;;;;0.45;0.40;;;;;;;18.56;86.87;101848.25;5002761;28;20404;-60
2022/07/09 00:36:38;;;;;;;0.20;0.20;;;;;;;18.56;87.14;101842.78;5004410;28;20033;-58
2022/07/09 00:39:04;;;;;;;0.10;0.10;;;;;;;18.55;87.02;101841.22;5001366;28;20117;-57
2022/07/09 00:41:30;;;;;;;0.10;0.00;;;;;;;18.58;86.66;101843.19;5008415;28;20049;-58
2022/07/09 00:43:55;;;;;;;0.20;0.20;;;;;;;18.55;87.16;101833.81;5008186;28;20026;-59
2022/07/09 00:46:21;;;;;;;3.22;0.80;;;;;;;18.56;86.95;101837.34;5000504;28;20030;-55
2022/07/09 00:48:47;;;;;;;0.10;0.10;;;;;;;18.54;86.86;101826.00;5005190;28;20038;-56
2022/07/09 00:51:14;;;;;;;0.10;0.10;;;;;;;18.51;87.29;101822.09;4995991;28;20083;-59
2022/07/09 00:53:40;;;;;;;0.57;0.57;;;;;;;18.45;88.27;101825.53;5007747;28;20042;-60
2022/07/09 00:56:07;;;;;;;0.32;0.20;;;;;;;18.49;88.06;101823.63;5002832;28;20030;-60
2022/07/09 00:58:34;;;;;;;0.17;0.17;;;;;;;18.51;87.91;101821.28;5010938;28;20061;-60
2022/07/09 01:01:01;;;;;;;0.05;0.05;;;;;;;18.48;87.95;101827.53;5006360;28;20057;-59
2022/07/09 01:03:27;;;;;;;0.65;0.43;;;;;;;18.46;88.40;101827.13;5008454;28;20038;-58
2022/07/09 01:05:52;;;;;;;1.30;1.20;;;;;;;18.42;88.62;101829.84;5011749;28;20042;-59
2022/07/09 01:08:19;;;;;;;0.45;0.45;;;;;;;18.43;88.90;101827.88;5005885;28;20014;-60
2022/07/09 01:10:45;;;;;;;1.80;0.90;;;;;;;18.51;88.35;101829.47;5006815;28;20392;-59
2022/07/09 01:13:11;;;;;;;0.43;0.22;;;;;;;18.48;88.66;101827.53;5004157;28;20037;-59
2022/07/09 01:15:37;;;;;;;0.55;0.47;;;;;;;18.52;88.55;101826.41;5011095;28;20547;-61
2022/07/09 01:18:03;;;;;;;0.95;0.77;;;;;;;18.54;88.58;101824.03;5007810;28;20049;-59
2022/07/09 01:20:29;;;;;;;0.15;0.10;;;;;;;18.53;88.68;101821.69;5009419;28;20049;-59
2022/07/09 01:22:56;;;;;;;0.08;0.08;;;;;;;18.55;88.95;101814.72;5006591;28;20104;-59
2022/07/09 01:25:31;;;;;;;0.22;0.22;;;;;;;18.56;88.72;101808.06;5002071;28;20069;-60
2022/07/09 01:27:57;;;;;;;0.20;0.10;;;;;;;18.61;88.95;101813.19;5008327;28;20044;-56
2022/07/09 01:30:25;;;;;;;0.40;0.20;;;;;;;18.62;88.96;101816.72;5008321;28;20038;-59
2022/07/09 01:32:52;;;;;;;0.80;0.55;;;;;;;18.61;89.54;101812.41;5012703;28;20037;-58
2022/07/09 01:35:18;;;;;;;0.50;0.28;;;;;;;18.60;89.63;101819.03;5002647;28;20040;-53
2022/07/09 01:37:44;;;;;;;0.28;0.28;;;;;;;18.63;89.29;101805.41;5006780;28;20405;-53
2022/07/09 01:40:10;;;;;;;0.05;0.05;;;;;;;18.70;89.07;101815.56;5007867;28;20026;-58
2022/07/09 01:42:35;;;;;;;0.10;0.10;;;;;;;18.64;89.14;101806.97;5008709;28;20033;-56
2022/07/09 01:45:01;;;;;;;0.20;0.20;;;;;;;18.64;89.39;101804.22;5005348;28;20034;-60
2022/07/09 01:47:27;;;;;;;0.57;0.25;;;;;;;18.70;88.80;101804.66;5012021;28;20021;-58
2022/07/09 01:49:52;;;;;;;0.20;0.20;;;;;;;18.68;88.83;101802.31;5000441;28;20109;-61
2022/07/09 01:52:18;;;;;;;0.70;0.70;;;;;;;18.69;88.85;101797.63;5007872;28;20038;-59
2022/07/09 01:54:43;;;;;;;1.25;0.35;;;;;;;18.68;88.83;101806.97;5003053;28;20484;-58
2022/07/09 01:57:09;;;;;;;1.55;0.32;;;;;;;18.65;89.21;101792.16;5009218;28;20536;-59
2022/07/09 01:59:34;;;;;;;0.30;0.30;;;;;;;18.63;89.22;101788.25;4999265;28;20037;-58
2022/07/09 02:02:01;;;;;;;0.10;0.10;;;;;;;18.64;89.30;101778.91;5007316;28;20026;-56
2022/07/09 02:04:27;;;;;;;0.30;0.20;;;;;;;18.65;89.41;101775.78;5009129;28;20093;-58
2022/07/09 02:06:52;;;;;;;0.20;0.20;;;;;;;18.49;90.20;101777.25;5009098;28;20483;-59
2022/07/09 02:09:18;;;;;;;0.10;0.10;;;;;;;18.59;89.98;101779.25;5010118;28;20104;-59
2022/07/09 02:11:43;;;;;;;0.25;0.17;;;;;;;18.62;90.34;101767.59;5007141;28;20065;-58
2022/07/09 02:14:09;;;;;;;0.45;0.45;;;;;;;18.65;90.08;101769.53;5004060;28;20097;-59
2022/07/09 02:16:35;;;;;;;0.10;0.10;;;;;;;18.62;90.36;101767.59;5001573;28;20042;-56
2022/07/09 02:19:01;;;;;;;0.10;0.10;;;;;;;18.61;90.40;101766.00;5005053;28;20034;-59
2022/07/09 02:21:27;;;;;;;0.30;0.30;;;;;;;18.57;90.65;101770.66;5022271;28;20034;-59
2022/07/09 02:23:58;;;;;;;0.65;0.30;;;;;;;18.57;90.78;101765.22;5001222;28;20485;-59
2022/07/09 02:26:27;;;;;;;;;;;;;;;18.58;90.51;101769.50;5005674;28;20045;-59
2022/07/09 02:28:55;;;;;;;0.80;0.77;;;;;;;18.60;90.20;101772.66;5009937;28;19920;-60
2022/07/09 02:31:21;;;;;;;1.40;1.05;;;;;;;18.59;90.21;101774.59;5002046;28;20084;-57
2022/07/09 02:33:47;;;;;;;0.20;0.20;;;;;;;18.60;90.54;101767.94;5008941;28;20499;-59
2022/07/09 02:36:12;;;;;;;3.15;1.48;;;;;;;18.56;90.51;101760.94;5002360;28;20476;-60
2022/07/09 02:38:38;;;;;;;0.30;0.10;;;;;;;18.56;90.41;101763.66;5009859;28;20472;-56
2022/07/09 02:41:04;;;;;;;0.95;0.93;;;;;;;18.52;90.57;101763.63;5000153;28;20034;-56
2022/07/09 02:43:29;;;;;;;0.40;0.20;;;;;;;18.51;90.53;101762.06;5004409;28;20046;-60
2022/07/09 02:45:55;;;;;;;0.45;0.43;;;;;;;18.52;90.60;101758.19;5008213;28;20037;-60
2022/07/09 02:48:25;;;;;;;1.23;0.47;;;;;;;18.54;90.75;101755.81;4998004;28;20408;-57
2022/07/09 02:50:51;;;;;;;0.10;0.10;;;;;;;18.51;91.03;101759.34;5010261;28;20389;-58
2022/07/09 02:53:17;;;;;;;0.68;0.32;;;;;;;18.50;90.71;101760.50;5005687;28;20030;-56
2022/07/09 02:55:42;;;;;;;0.28;0.28;;;;;;;18.51;91.23;101759.34;5006839;28;20449;-58
2022/07/09 02:58:08;;;;;;;0.20;0.20;;;;;;;18.52;91.11;101762.84;5009278;28;20030;-56
2022/07/09 03:00:33;;;;;;;0.15;0.15;;;;;;;18.49;90.95;101764.38;5008585;28;20048;-56
2022/07/09 03:02:59;;;;;;;0.43;0.43;;;;;;;18.49;91.24;101764.38;5007908;28;20492;-57
2022/07/09 03:05:25;;;;;;;0.57;0.32;;;;;;;18.46;91.23;101754.25;5006875;28;20045;-54
2022/07/09 03:07:50;;;;;;;0.32;0.30;;;;;;;18.47;91.15;101758.53;5010345;28;20026;-58
2022/07/09 03:10:16;;;;;;;0.20;0.10;;;;;;;18.50;91.13;101757.78;5009918;28;20033;-58
2022/07/09 03:12:41;;;;;;;0.30;0.30;;;;;;;18.48;91.31;101762.03;5019409;28;20062;-57
2022/07/09 03:15:08;;;;;;;1.73;0.77;;;;;;;18.48;91.81;101749.19;5005564;28;20108;-56
2022/07/09 03:17:34;;;;;;;0.52;0.45;;;;;;;18.43;92.78;101751.47;5005332;28;20034;-57
2022/07/09 03:20:00;;;;;;;0.13;0.13;;;;;;;18.45;93.16;101754.59;5003942;28;20038;-55
2022/07/09 03:22:25;;;;;;;1.05;0.32;;;;;;;18.43;93.58;101756.94;5004785;28;20032;-57
2022/07/09 03:24:51;;;;;;;0.30;0.30;;;;;;;18.41;93.70;101742.84;5004508;28;20077;-55
2022/07/09 03:27:17;;;;;;;0.30;0.30;;;;;;;18.42;93.76;101733.53;4998442;28;20485;-59
2022/07/09 03:29:42;;;;;;;1.15;1.00;;;;;;;18.35;93.55;101734.25;5005722;28;20040;-60
2022/07/09 03:32:08;;;;;;;0.57;0.45;;;;;;;18.36;93.53;101729.59;5007031;28;20034;-58
2022/07/09 03:34:34;;;;;;;0.30;0.30;;;;;;;18.36;93.55;101730.38;5003935;28;20033;-59
2022/07/09 03:36:59;;;;;;;0.22;0.20;;;;;;;18.37;93.47;101729.19;5001216;28;20018;-56
2022/07/09 03:39:25;;;;;;;0.63;0.63;;;;;;;18.37;93.59;101729.19;5007126;28;20026;-62
2022/07/09 03:41:51;;;;;;;0.28;0.28;;;;;;;18.39;93.38;101720.66;5003420;28;20030;-59
2022/07/09 03:44:17;;;;;;;0.08;0.08;;;;;;;18.38;93.39;101719.88;5008466;28;20030;-60
2022/07/09 03:46:43;;;;;;;0.85;0.40;;;;;;;18.39;93.03;101720.66;5004879;28;20083;-56
2022/07/09 03:49:10;;;;;;;0.95;0.40;;;;;;;18.40;93.43;101714.03;5008056;28;20026;-57
2022/07/09 03:51:35;;;;;;;0.15;0.15;;;;;;;18.44;92.75;101723.03;5005168;28;20108;-58
2022/07/09 03:54:01;;;;;;;0.38;0.25;;;;;;;18.40;93.06;101714.03;5006914;28;20121;-57
2022/07/09 03:56:26;;;;;;;0.52;0.30;;;;;;;18.38;93.05;101706.22;5005741;28;20033;-58
2022/07/09 03:58:52;;;;;;;0.28;0.20;;;;;;;18.41;92.93;101712.84;4995032;28;20400;-59
2022/07/09 04:01:18;;;;;;;0.35;0.20;;;;;;;18.38;92.97;101716.34;5005062;28;20067;-58
2022/07/09 04:03:43;;;;;;;0.00;0.00;;;;;;;18.34;93.60;101712.81;5008393;28;20057;-58
2022/07/09 04:06:09;;;;;;;0.50;0.20;;;;;;;18.37;93.79;101714.81;5009138;28;20053;-58
2022/07/09 04:08:35;;;;;;;0.47;0.47;;;;;;;18.28;94.15;101706.94;5005486;28;20027;-60
2022/07/09 04:11:01;;;;;;;0.30;0.30;;;;;;;18.34;93.46;101702.69;5002104;28;20029;-57
2022/07/09 04:13:26;;;;;;;0.22;0.22;;;;;;;18.35;93.59;101704.25;5006753;28;20057;-56
2022/07/09 04:15:52;;;;;;;0.32;0.32;;;;;;;18.38;93.55;101699.97;5006494;28;20065;-60
2022/07/09 04:18:17;;;;;;;0.38;0.20;;;;;;;18.40;93.85;101695.72;5007346;28;20033;-59
2022/07/09 04:20:43;;;;;;;0.22;0.20;;;;;;;18.42;93.58;101700.78;5023272;23;20068;-66
2022/07/09 04:23:09;;;;;;;0.32;0.15;;;;;;;18.47;93.78;101703.97;5006448;28;20038;-66
2022/07/09 04:25:35;;;;;;;0.28;0.28;;;;;;;18.44;94.19;101704.72;5026815;28;20021;-66
2022/07/09 04:28:01;;;;;;;0.08;0.08;;;;;;;18.46;94.55;101702.41;5025695;28;20032;-66
2022/07/09 04:30:27;;;;;;;0.10;0.10;;;;;;;18.50;93.94;101702.41;5027156;28;20676;-66
2022/07/09 04:32:53;;;;;;;0.20;0.20;;;;;;;18.56;94.02;101700.91;5028303;28;20373;-66
2022/07/09 04:35:18;;;;;;;3.40;0.75;;;;;;;18.57;94.27;101707.91;5026488;28;20041;-66
2022/07/09 04:37:44;;;;;;;0.30;0.30;;;;;;;18.59;94.13;101700.13;5027928;28;20383;-66
2022/07/09 04:40:10;;;;;;;1.92;0.93;;;;;;;18.59;94.23;101700.13;5028441;28;20025;-66
2022/07/09 04:42:36;;;;;;;0.10;0.10;;;;;;;18.62;93.87;101694.66;5010534;28;20029;-66
2022/07/09 04:45:01;;;;;;;0.10;0.10;;;;;;;18.69;93.51;101699.38;5027801;28;20048;-66
2022/07/09 04:47:27;;;;;;;0.30;0.22;;;;;;;18.66;93.76;101700.16;5024907;28;20061;-66
2022/07/09 04:49:52;;;;;;;0.28;0.20;;;;;;;18.68;93.72;101703.25;5031138;28;20037;-66
2022/07/09 04:52:19;;;;;;;0.10;0.10;;;;;;;18.64;93.80;101695.06;5028187;28;20099;-66
2022/07/09 04:54:46;;;;;;;1.20;0.40;;;;;;;18.66;94.06;101690.00;5026860;28;20026;-66
2022/07/09 04:57:12;;;;;;;0.25;0.10;;;;;;;18.68;94.19;101684.16;5027843;28;20036;-67
2022/07/09 04:59:37;;;;;;;0.30;0.30;;;;;;;18.71;94.29;101686.13;5027584;28;20171;-66
2022/07/09 05:02:03;;;;;;;0.43;0.28;;;;;;;18.69;94.13;101699.38;5024339;28;20033;-66
2022/07/09 05:04:29;;;;;;;0.30;0.20;;;;;;;18.67;94.28;101690.78;5027339;28;20025;-67
2022/07/09 05:06:55;;;;;;;0.10;0.08;;;;;;;18.68;94.55;101687.69;5009946;28;20087;-66
2022/07/09 05:09:21;;;;;;;0.10;0.10;;;;;;;18.75;94.17;101685.00;5005139;28;20033;-66
2022/07/09 05:11:47;;;;;;;0.60;0.60;;;;;;;18.76;94.02;101693.94;5010386;28;20033;-67
2022/07/09 05:14:12;;;;;;;0.55;0.55;;;;;;;18.71;94.73;101691.59;5026846;28;20022;-66
2022/07/09 05:16:44;;;;;;;0.75;0.40;;;;;;;18.80;94.33;101692.00;5018164;28;20049;-67
2022/07/09 05:19:11;;;;;;;0.22;0.17;;;;;;;18.79;94.66;101685.00;5019505;28;20033;-66
2022/07/09 05:21:38;;;;;;;0.68;0.30;;;;;;;18.82;94.67;101686.94;5025396;28;20025;-66
2022/07/09 05:24:05;;;;;;;0.32;0.30;;;;;;;18.91;94.26;101687.38;5026973;28;20041;-66
2022/07/09 05:26:31;;;;;;;0.43;0.30;;;;;;;18.88;94.48;101677.22;5021509;28;20120;-66
2022/07/09 05:28:57;;;;;;;0.77;0.50;;;;;;;18.88;94.71;101685.41;5021098;28;20121;-66
2022/07/09 05:31:22;;;;;;;0.25;0.20;;;;;;;18.93;94.74;101682.28;5017697;28;20504;-66
2022/07/09 05:33:48;;;;;;;0.63;0.40;;;;;;;18.90;94.95;101683.88;5026443;28;20088;-66
2022/07/09 05:36:13;;;;;;;0.88;0.22;;;;;;;18.88;95.33;101685.41;5023606;28;20468;-66
2022/07/09 05:38:39;;;;;;;0.22;0.22;;;;;;;18.89;95.30;101682.28;5022186;28;20560;-66
2022/07/09 05:41:04;;;;;;;0.50;0.50;;;;;;;18.98;95.19;101683.88;5025366;28;20040;-66
2022/07/09 05:43:30;;;;;;;0.15;0.15;;;;;;;18.98;95.37;101676.47;5026524;28;21335;-66
2022/07/09 05:45:56;;;;;;;0.28;0.25;;;;;;;19.03;95.63;101681.53;5028027;28;20043;-66
2022/07/09 05:48:21;;;;;;;0.20;0.20;;;;;;;19.09;95.13;101681.94;5029398;28;20057;-66
2022/07/09 05:50:46;;;;;;;0.43;0.40;;;;;;;19.15;94.91;101675.72;5021829;28;20040;-66
2022/07/09 05:53:12;;;;;;;0.75;0.20;;;;;;;19.12;94.95;101670.25;5029477;28;20033;-66
2022/07/09 05:55:38;;;;;;;0.85;0.35;;;;;;;19.20;94.30;101672.59;5020616;28;20029;-66
2022/07/09 05:58:04;;;;;;;0.40;0.40;;;;;;;19.18;94.70;101677.66;5028180;28;20095;-66
2022/07/09 06:00:29;;;;;;;0.08;0.08;;;;;;;19.19;94.35;101683.91;5026239;28;20026;-66
2022/07/09 06:02:55;;;;;;;0.20;0.20;;;;;;;19.21;94.53;101676.91;5027971;28;20033;-66
2022/07/09 06:05:20;;;;;;;0.20;0.20;;;;;;;19.17;94.72;101670.66;5010612;28;20492;-65
2022/07/09 06:07:46;;;;;;;0.40;0.40;;;;;;;19.19;95.04;101671.06;5002827;28;20526;-66
2022/07/09 06:10:14;;;;;;;0.57;0.40;;;;;;;19.20;94.73;101671.84;5006502;28;20025;-65
2022/07/09 06:12:41;;;;;;;0.47;0.35;;;;;;;19.20;94.78;101680.03;5025545;28;20040;-65
2022/07/09 06:15:09;;;;;;;0.22;0.22;;;;;;;19.20;94.82;101669.88;5018995;28;20026;-66
2022/07/09 06:17:35;;;;;;;0.03;0.00;;;;;;;19.20;94.96;101666.38;5021382;28;20399;-66
2022/07/09 06:20:00;;;;;;;0.63;0.60;;;;;;;19.20;94.71;101658.94;5017316;28;20037;-66
2022/07/09 06:22:26;;;;;;;0.10;0.10;;;;;;;19.22;95.00;101667.53;5025735;28;20035;-66
2022/07/09 06:24:51;;;;;;;0.30;0.28;;;;;;;19.22;94.99;101672.22;5010925;28;20380;-66
2022/07/09 06:27:17;;;;;;;0.20;0.20;;;;;;;19.20;94.94;101667.13;5024478;28;20029;-66
2022/07/09 06:29:42;;;;;;;0.43;0.30;;;;;;;19.17;95.54;101659.72;5023970;28;20033;-65
2022/07/09 06:32:08;;;;;;;0.10;0.10;;;;;;;19.19;95.70;101657.41;5031093;28;20130;-66
2022/07/09 06:34:34;;;;;;;0.30;0.25;;;;;;;19.19;96.33;101660.13;5021894;28;20045;-66
2022/07/09 06:36:59;;;;;;;0.85;0.65;;;;;;;19.30;96.34;101665.63;5027246;28;20269;-66
2022/07/09 06:42:09;;;;;;;0.65;0.65;;;;;;;19.29;97.22;101662.09;5023916;28;20099;-66
2022/07/09 06:44:36;;;;;;;0.22;0.22;;;;;;;19.31;97.91;101653.50;5007438;28;20029;-66
2022/07/09 06:47:02;;;;;;;0.22;0.22;;;;;;;19.42;97.76;101644.16;5010158;28;20395;-65
2022/07/09 06:49:28;;;;;;;0.25;0.15;;;;;;;19.49;98.15;101659.81;5023832;28;20037;-65
2022/07/09 06:51:53;;;;;;;0.20;0.20;;;;;;;19.59;97.64;101659.00;5011113;28;20026;-66
2022/07/09 06:54:19;;;;;;;0.45;0.45;;;;;;;19.62;97.38;101667.22;5029916;28;20132;-66
2022/07/09 06:56:45;;;;;;;0.40;0.22;;;;;;;19.65;96.96;101658.22;5011328;28;20405;-66
2022/07/09 06:59:10;;;;;;;0.30;0.30;;;;;;;19.71;96.66;101662.13;5007793;28;20048;-66
2022/07/09 07:01:36;;;;;;;0.30;0.30;;;;;;;19.78;95.99;101664.84;5028459;28;20033;-66
2022/07/09 07:04:01;;;;;;;0.20;0.20;;;;;;;19.86;96.42;101662.13;5027533;28;20029;-66
2022/07/09 07:06:27;;;;;;;0.38;0.30;;;;;;;20.01;95.30;101666.38;5027868;28;20037;-66
2022/07/09 07:08:52;;;;;;;0.50;0.50;;;;;;;20.12;95.00;101651.50;4995350;28;20033;-66
2022/07/09 07:11:18;;;;;;;0.38;0.28;;;;;;;20.24;94.14;101651.13;5030020;28;20037;-66
2022/07/09 07:13:44;;;;;;;0.55;0.55;;;;;;;20.36;93.31;101649.91;5029279;28;20029;-66
2022/07/09 07:16:09;;;;;;;0.28;0.28;;;;;;;20.46;92.13;101652.59;5026808;28;20100;-66
2022/07/09 07:18:35;;;;;;;0.17;0.13;;;;;;;20.50;92.09;101647.09;5029380;28;20033;-66
2022/07/09 07:21:00;;;;;;;0.80;0.60;;;;;;;;;;5026438;28;20053;-66
2022/07/09 07:23:26;;;;;;;0.10;0.10;;;;;;;20.57;91.10;101649.81;5025664;28;20079;-67
2022/07/09 07:25:51;;;;;;;0.20;0.20;;;;;;;20.54;90.17;101654.13;5029510;28;20073;-66
2022/07/09 07:28:17;;;;;;;0.35;0.22;;;;;;;20.56;90.24;101651.78;5020521;28;20025;-66
2022/07/09 07:30:42;;;;;;;0.35;0.28;;;;;;;20.60;90.34;101651.75;5009509;28;20033;-66
2022/07/09 07:33:08;;;;;;;0.17;0.17;;;;;;;20.58;90.16;101648.63;5029642;28;20384;-66
2022/07/09 07:35:33;;;;;;;0.25;0.25;;;;;;;20.61;90.15;101645.09;5011550;28;20037;-66
2022/07/09 07:37:59;;;;;;;0.77;0.20;;;;;;;20.64;89.87;101649.78;5023973;28;20087;-66
2022/07/09 07:40:25;;;;;;;0.20;0.20;;;;;;;20.71;90.04;101657.19;5022521;28;20030;-66
2022/07/09 07:42:50;;;;;;;0.20;0.20;;;;;;;20.83;89.79;101643.03;5026644;28;20116;-66
2022/07/09 07:45:16;;;;;;;0.00;0.00;;;;;;;21.00;88.90;101640.16;5029777;28;20043;-66
2022/07/09 07:47:41;;;;;;;0.68;0.40;;;;;;;21.16;87.96;101647.94;5009712;28;20064;-67
2022/07/09 07:50:07;;;;;;;0.82;0.63;;;;;;;21.27;86.47;101646.66;5022837;28;20029;-66
2022/07/09 07:52:33;;;;;;;0.35;0.15;;;;;;;21.28;86.00;101642.75;5010695;28;20037;-66
2022/07/09 07:54:59;;;;;;;0.20;0.20;;;;;;;21.21;86.41;101637.34;5023080;28;20033;-67
2022/07/09 07:57:24;;;;;;;0.20;0.10;;;;;;;21.21;87.09;101636.56;5015765;28;20090;-66
2022/07/09 07:59:50;;;;;;;0.35;0.35;;;;;;;21.14;88.53;101636.59;5008909;28;20123;-66
2022/07/09 08:02:15;;;;;;;0.10;0.10;;;;;;;20.99;89.86;101637.84;5019692;28;20056;-66
2022/07/09 08:04:41;;;;;;;0.10;0.10;;;;;;;20.94;91.02;101635.53;5022318;28;20041;-67
2022/07/09 08:07:06;;;;;;;0.17;0.17;;;;;;;20.88;91.62;101634.41;5014604;28;20395;-66
2022/07/09 08:09:33;;;;;;;0.30;0.30;;;;;;;20.88;92.15;101629.69;5019574;28;20472;-66
2022/07/09 08:12:00;;;;;;;0.40;0.22;;;;;;;20.93;91.43;101633.97;5020189;28;20063;-66
2022/07/09 08:14:26;;;;;;;0.20;0.20;;;;;;;20.97;91.35;101626.50;5021222;28;20029;-66
2022/07/09 08:16:51;;;;;;;0.10;0.10;;;;;;;21.05;91.12;101628.84;5015254;28;20408;-67
2022/07/09 08:19:17;;;;;;;0.70;0.52;;;;;;;21.29;89.54;101616.88;5022459;28;20039;-66
2022/07/09 08:21:43;;;;;;;0.17;0.17;;;;;;;21.65;88.69;101622.06;5022288;28;20041;-66
2022/07/09 08:24:08;;;;;;;0.30;0.30;;;;;;;21.89;87.49;101621.09;5029537;28;20040;-66
2022/07/09 08:26:34;;;;;;;0.10;0.10;;;;;;;22.00;86.23;101621.75;5012280;28;20116;-66
2022/07/09 08:32:47;;;;;;;0.17;0.17;;;;;;;21.97;83.28;101619.84;5025058;28;20076;-66
2022/07/09 08:35:13;;;;;;;0.03;0.03;;;;;;;21.91;82.48;101626.94;5030332;28;20557;-66
2022/07/09 08:37:38;;;;;;;0.30;0.25;;;;;;;21.84;82.66;101616.81;5007608;28;20045;-66
2022/07/09 08:40:06;;;;;;;0.20;0.20;;;;;;;21.76;82.22;101618.03;5031773;28;20046;-66
2022/07/09 08:42:31;;;;;;;0.20;0.20;;;;;;;21.65;82.21;101620.13;5028765;28;20033;-66
2022/07/09 08:44:57;;;;;;;0.25;0.20;;;;;;;21.54;83.05;101616.69;5025979;28;20029;-66
2022/07/09 08:47:24;;;;;;;0.10;0.10;;;;;;;21.46;84.25;101615.19;5017940;28;20412;-67
2022/07/09 08:49:54;;;;;;;0.10;0.10;;;;;;;21.42;85.17;101614.44;5026903;28;20533;-66
2022/07/09 08:52:20;;;;;;;0.00;0.00;;;;;;;21.35;85.93;101615.28;5013546;28;20033;-66
2022/07/09 08:54:46;;;;;;;0.10;0.10;;;;;;;21.36;86.14;101610.59;5017020;28;20041;-66
2022/07/09 08:57:11;;;;;;;0.13;0.03;;;;;;;21.33;86.12;101614.91;5017033;28;20168;-66
2022/07/09 08:59:38;;;;;;;0.25;0.20;;;;;;;21.33;86.66;101614.91;5018175;28;20064;-67
2022/07/09 09:02:05;;;;;;;0.13;0.13;;;;;;;21.29;87.11;101611.41;5027278;28;20029;-67
2022/07/09 09:04:34;;;;;;;0.15;0.15;;;;;;;21.33;86.42;101603.19;5023529;28;20457;-67
2022/07/09 09:07:11;;;;;;;0.05;0.05;;;;;;;21.39;86.59;101610.56;5014372;28;20793;-65
2022/07/09 09:09:36;;;;;;;0.13;0.10;;;;;;;21.44;86.19;101618.34;5012594;28;20042;-65
2022/07/09 09:12:02;;;;;;;0.08;0.08;;;;;;;21.49;86.43;101614.38;5016133;28;20021;-64
2022/07/09 09:14:29;;;;;;;0.08;0.03;;;;;;;21.60;84.94;101623.31;5018305;28;20038;-65
2022/07/09 09:17:06;;;;;;;0.10;0.10;;;;;;;21.62;84.76;101611.94;4978615;28;20183;-64
2022/07/09 09:19:33;;;;;;;0.03;0.00;;;;;;;21.76;84.31;101612.56;5022382;28;20099;-65
2022/07/09 09:21:58;;;;;;;0.22;0.22;;;;;;;22.10;84.33;101604.38;5022214;28;20405;-65
2022/07/09 09:24:25;;;;;;;0.90;0.80;;;;;;;22.54;83.00;101606.19;5024639;28;20108;-65
2022/07/09 09:26:51;;;;;;;0.20;0.20;;;;;;;22.92;79.93;101596.63;5029045;28;20388;-65
2022/07/09 09:29:17;;;;;;;0.30;0.15;;;;;;;23.35;79.64;101599.50;5020796;28;20033;-66
2022/07/09 09:32:05;;;;;;;0.20;0.20;;;;;;;23.70;76.84;101587.88;5006936;28;20108;-65
2022/07/09 09:34:35;;;;;;;0.00;0.00;;;;;;;23.91;75.28;101592.97;4956791;28;20054;-66
2022/07/09 09:37:01;;;;;;;0.03;0.03;;;;;;;23.93;73.45;101591.38;4969696;28;20095;-65
2022/07/09 09:39:29;;;;;;;0.32;0.30;;;;;;;23.91;71.52;101582.75;4965044;28;20131;-65
2022/07/09 09:41:56;;;;;;;0.00;0.00;;;;;;;23.92;69.65;101591.78;4971997;28;20042;-65
2022/07/09 09:44:25;;;;;;;0.10;0.10;;;;;;;24.01;69.27;101589.25;4959509;28;20031;-65
2022/07/09 09:47:00;;;;;;;0.10;0.00;;;;;;;23.94;69.79;101575.63;4957595;28;20074;-65
2022/07/09 09:49:26;;;;;;;0.00;0.00;;;;;;;24.16;70.30;101582.28;4966923;28;20506;-66
2022/07/09 09:51:54;;;;;;;0.08;0.08;;;;;;;24.21;67.96;101572.75;4945127;28;20062;-65
2022/07/09 09:54:21;;;;;;;0.15;0.10;;;;;;;24.14;67.99;101579.16;4952408;28;20093;-65
2022/07/09 09:56:48;;;;;;;0.00;0.00;;;;;;;24.06;68.75;101586.78;4966509;28;20043;-65
2022/07/09 09:59:15;;;;;;;0.65;0.65;;;;;;;24.08;69.36;101583.63;4952118;28;20031;-66
2022/07/09 10:01:41;;;;;;;0.00;0.00;;;;;;;23.96;69.04;101592.50;4964791;28;20034;-65
2022/07/09 10:04:09;;;;;;;0.10;0.10;;;;;;;23.95;69.47;101588.97;4968188;28;21348;-65
2022/07/09 10:06:36;;;;;;;0.10;0.10;;;;;;;23.81;70.64;101580.22;4949162;28;20066;-65
2022/07/09 10:09:07;;;;;;;0.10;0.10;;;;;;;23.80;72.18;101573.16;4944541;28;20061;-66
2022/07/09 10:11:48;;;;;;;0.10;0.10;;;;;;;24.11;69.26;101578.06;4999810;28;20041;-65
2022/07/09 10:14:33;;;;;;;0.00;0.00;;;;;;;24.20;68.63;101565.69;5036345;28;20083;-66
2022/07/09 10:17:15;;;;;;;0.00;0.00;;;;;;;24.18;68.37;101577.13;5022691;28;20037;-66
2022/07/09 10:19:56;;;;;;;0.20;0.10;;;;;;;24.15;65.33;101570.50;5027949;28;20041;-66
2022/07/09 10:22:34;;;;;;;0.00;0.00;;;;;;;24.25;64.92;101565.19;4997277;22;20519;-59
2022/07/09 10:24:59;;;;;;;0.00;0.00;;;;;;;24.62;64.75;101573.78;4986534;28;20058;-60
2022/07/09 10:27:25;;;;;;;0.10;0.10;;;;;;;24.90;64.03;101564.91;4975099;28;20101;-61
2022/07/09 10:29:55;;;;;;;0.00;0.00;;;;;;;25.11;63.19;101571.09;4978020;28;20093;-55
2022/07/09 10:32:31;;;;;;;0.03;0.00;;;;;;;25.28;60.84;101562.38;4990605;28;20455;-57
2022/07/09 10:35:05;;;;;;;0.40;0.40;;;;;;;25.17;58.79;101561.09;4974987;28;20393;-60
2022/07/09 10:37:31;;;;;;;0.10;0.10;;;;;;;25.04;58.66;101564.56;4989583;28;20117;-57
2022/07/09 10:40:11;;;;;;;0.00;0.00;;;;;;;24.89;59.97;101566.09;4978285;28;20295;-59
2022/07/09 10:42:37;;;;;;;0.00;0.00;;;;;;;25.14;60.50;101562.75;4988576;28;20044;-56
2022/07/09 10:45:04;;;;;;;0.05;0.00;;;;;;;25.24;57.32;101558.16;4986173;28;20035;-59
2022/07/09 10:47:38;;;;;;;0.00;0.00;;;;;;;24.96;58.18;101554.91;4987476;28;20038;-57
2022/07/09 10:50:05;;;;;;;0.35;0.13;;;;;;;24.86;59.22;101547.66;4980114;28;20113;-61
2022/07/09 10:52:31;;;;;;;0.20;0.20;;;;;;;24.75;58.46;101547.16;4990277;28;20624;-59
2022/07/09 10:54:57;;;;;;;0.00;0.00;;;;;;;24.79;59.03;101555.34;4984653;28;20122;-59
2022/07/09 10:57:22;;;;;;;0.10;0.10;;;;;;;24.92;60.12;101548.72;4979968;28;20027;-60
2022/07/09 10:59:48;;;;;;;0.00;0.00;;;;;;;25.33;59.46;101553.59;4989116;28;20053;-57
2022/07/09 11:02:23;;;;;;;0.45;0.00;;;;;;;25.76;57.29;101542.97;4982019;28;20485;-56
2022/07/09 11:04:52;;;;;;;0.00;0.00;;;;;;;25.99;55.86;101550.22;4985919;28;20076;-60
2022/07/09 11:07:23;;;;;;;0.00;0.00;;;;;;;26.00;57.02;101548.25;4970769;28;20041;-55
2022/07/09 11:09:49;;;;;;;0.00;0.00;;;;;;;25.90;57.46;101548.09;4953825;28;20500;-57
2022/07/09 11:12:22;;;;;;;0.10;0.00;;;;;;;25.68;57.33;101555.44;4976337;28;20027;-59
2022/07/09 11:14:50;;;;;;;2.50;1.00;;;;;;;25.64;56.11;101556.72;4963323;28;20034;-60
2022/07/09 11:17:17;;;;;;;0.15;0.05;;;;;;;25.59;56.94;101560.78;4983369;28;20037;-58
2022/07/09 11:19:43;;;;;;;1.08;0.55;;;;;;;25.72;58.35;101552.56;4982213;28;20041;-59
2022/07/09 11:22:08;;;;;;;1.55;0.65;;;;;;;25.96;56.61;101548.31;4974143;28;20393;-60
2022/07/09 11:24:34;;;;;;;0.00;0.00;;;;;;;26.28;57.22;101539.91;4974493;28;20058;-56
2022/07/09 11:27:07;;;;;;;0.10;0.10;;;;;;;26.69;56.50;101552.84;4977345;28;20034;-57
2022/07/09 11:29:34;;;;;;;0.30;0.30;;;;;;;26.98;55.46;101559.06;4980494;28;20033;-55